createdAt,value
2017-05-23T00:01:35.546Z,100807.03
2017-05-23T00:04:01.897Z,100817.72
2017-05-23T00:06:28.234Z,100810.50
2017-05-23T00:08:54.573Z,100805.70
2017-05-23T00:11:21.001Z,100807.64
2017-05-23T00:13:47.384Z,100807.83
2017-05-23T00:16:13.729Z,100805.47
2017-05-23T00:18:40.077Z,100797.51
2017-05-23T00:21:06.449Z,100793.23
2017-05-23T00:23:32.826Z,100790.83
2017-05-23T00:25:59.149Z,100788.04
2017-05-23T00:28:25.489Z,100783.41
2017-05-23T00:30:51.837Z,100787.41
2017-05-23T00:33:18.162Z,100780.00
2017-05-23T00:35:44.520Z,100780.69
2017-05-23T00:38:10.844Z,100773.45
2017-05-23T00:40:37.204Z,100771.32
2017-05-23T00:43:03.596Z,100766.50
2017-05-23T00:45:29.961Z,100764.61
2017-05-23T00:47:56.278Z,100766.16
2017-05-23T00:50:22.603Z,100762.17
2017-05-23T00:52:48.983Z,100757.73
2017-05-23T00:55:15.341Z,100758.64
2017-05-23T00:57:41.652Z,100748.38
2017-05-23T01:00:08.032Z,100756.31
2017-05-23T01:02:34.432Z,100762.01
2017-05-23T01:05:00.859Z,100760.90
2017-05-23T01:07:34.382Z,100767.92
2017-05-23T01:10:05.802Z,100764.45
2017-05-23T01:12:38.292Z,100764.33
2017-05-23T01:15:09.967Z,100761.50
2017-05-23T01:17:41.547Z,100759.66
2017-05-23T01:20:08.134Z,100767.08
2017-05-23T01:22:34.604Z,100766.65
2017-05-23T01:25:02.189Z,100764.97
2017-05-23T01:27:28.642Z,100767.92
2017-05-23T01:30:01.185Z,100763.67
2017-05-23T01:32:28.808Z,100774.94
2017-05-23T01:34:55.233Z,100776.66
2017-05-23T01:37:22.040Z,100772.81
2017-05-23T01:39:54.057Z,100773.16
2017-05-23T01:42:20.591Z,100775.49
2017-05-23T01:44:47.154Z,100770.78
2017-05-23T01:47:13.739Z,100772.25
2017-05-23T01:49:40.087Z,100776.33
2017-05-23T01:52:06.721Z,100775.09
2017-05-23T01:54:34.028Z,100769.75
2017-05-23T01:57:01.452Z,100773.13
2017-05-23T01:59:27.919Z,100772.94
2017-05-23T02:01:55.958Z,100767.77
2017-05-23T02:04:23.174Z,100771.32
2017-05-23T02:06:51.050Z,100769.16
2017-05-23T02:09:24.304Z,100780.14
2017-05-23T02:11:50.775Z,100779.33
2017-05-23T02:14:17.260Z,100770.31
2017-05-23T02:16:45.005Z,100774.50
2017-05-23T02:19:14.509Z,100772.28
2017-05-23T02:21:46.308Z,100777.28
2017-05-23T02:24:18.289Z,100777.18
2017-05-23T02:26:50.030Z,100777.06
2017-05-23T02:29:17.498Z,100777.17
2017-05-23T02:31:43.933Z,100779.27
2017-05-23T02:34:14.414Z,100777.27
2017-05-23T02:36:45.786Z,100778.52
2017-05-23T02:39:17.850Z,100777.91
2017-05-23T02:41:44.239Z,100778.00
2017-05-23T02:44:10.849Z,100774.28
2017-05-23T02:46:37.290Z,100778.48
2017-05-23T02:49:08.919Z,100776.98
2017-05-23T02:51:35.382Z,100777.42
2017-05-23T02:54:01.778Z,100781.50
2017-05-23T02:56:29.198Z,100772.67
2017-05-23T02:58:55.537Z,100778.77
2017-05-23T03:01:23.138Z,100775.05
2017-05-23T03:03:49.965Z,100773.50
2017-05-23T03:06:21.670Z,100779.97
2017-05-23T03:08:48.022Z,100779.82
2017-05-23T03:11:19.951Z,100779.58
2017-05-23T03:13:46.506Z,100789.92
2017-05-23T03:16:18.914Z,100779.68
2017-05-23T03:18:50.673Z,100783.29
2017-05-23T03:21:22.271Z,100781.95
2017-05-23T03:23:51.686Z,100791.16
2017-05-23T03:26:18.557Z,100783.10
2017-05-23T03:28:45.272Z,100786.69
2017-05-23T03:31:15.619Z,100782.22
2017-05-23T03:33:47.286Z,100782.55
2017-05-23T03:36:14.409Z,100786.63
2017-05-23T03:38:41.558Z,100783.24
2017-05-23T03:41:13.363Z,100782.95
2017-05-23T03:43:39.929Z,100780.17
2017-05-23T03:46:12.924Z,100780.18
2017-05-23T03:48:39.434Z,100779.02
2017-05-23T03:51:10.982Z,100779.23
2017-05-23T03:53:38.769Z,100777.77
2017-05-23T03:56:10.270Z,100780.19
2017-05-23T03:58:43.028Z,100782.20
2017-05-23T04:01:10.077Z,100784.19
2017-05-23T04:03:36.852Z,100782.02
2017-05-23T04:06:03.157Z,100785.09
2017-05-23T04:08:29.554Z,100788.16
2017-05-23T04:10:56.298Z,100795.14
2017-05-23T04:13:23.439Z,100790.70
2017-05-23T04:15:53.034Z,100794.21
2017-05-23T04:18:24.601Z,100792.34
2017-05-23T04:20:56.509Z,100795.52
2017-05-23T04:23:22.984Z,100792.65
2017-05-23T04:25:50.781Z,100791.61
2017-05-23T04:28:17.279Z,100797.69
2017-05-23T04:30:44.049Z,100792.85
2017-05-23T04:33:10.348Z,100792.91
2017-05-23T04:35:45.823Z,100798.81
2017-05-23T04:38:17.249Z,100798.61
2017-05-23T04:40:43.681Z,100799.83
2017-05-23T04:43:10.893Z,100800.77
2017-05-23T04:45:42.773Z,100805.50
2017-05-23T04:48:09.197Z,100806.98
2017-05-23T04:50:38.725Z,100809.09
2017-05-23T04:53:05.264Z,100813.28
2017-05-23T04:55:31.821Z,100809.71
2017-05-23T04:57:58.550Z,100809.05
2017-05-23T05:00:25.981Z,100813.63
2017-05-23T05:02:55.806Z,100816.36
2017-05-23T05:05:22.297Z,100819.92
2017-05-23T05:07:54.305Z,100817.38
2017-05-23T05:10:25.893Z,100821.07
2017-05-23T05:12:52.447Z,100825.69
2017-05-23T05:15:19.549Z,100824.95
2017-05-23T05:17:46.028Z,100824.88
2017-05-23T05:20:12.873Z,100824.95
2017-05-23T05:22:39.467Z,100830.64
2017-05-23T05:25:07.297Z,100828.64
2017-05-23T05:27:39.927Z,100834.90
2017-05-23T05:30:06.259Z,100833.37
2017-05-23T05:32:37.772Z,100840.19
2017-05-23T05:35:04.791Z,100834.83
2017-05-23T05:37:36.440Z,100838.41
2017-05-23T05:40:02.862Z,100838.44
2017-05-23T05:42:34.512Z,100838.62
2017-05-23T05:45:00.979Z,100832.03
2017-05-23T05:47:27.446Z,100832.83
2017-05-23T05:49:53.905Z,100837.95
2017-05-23T05:52:20.318Z,100848.65
2017-05-23T05:54:50.062Z,100845.34
2017-05-23T05:57:16.464Z,100852.59
2017-05-23T05:59:55.518Z,100854.66
2017-05-23T06:02:21.932Z,100845.88
2017-05-23T06:04:48.697Z,100849.92
2017-05-23T06:07:15.087Z,100847.15
2017-05-23T06:09:48.146Z,100843.77
2017-05-23T06:12:19.949Z,100841.98
2017-05-23T06:14:48.357Z,100841.93
2017-05-23T06:17:15.145Z,100833.30
2017-05-23T06:19:47.611Z,100835.55
2017-05-23T06:22:14.092Z,100835.09
2017-05-23T06:24:40.563Z,100839.70
2017-05-23T06:27:07.222Z,100842.09
2017-05-23T06:29:33.889Z,100842.39
2017-05-23T06:32:02.192Z,100844.83
2017-05-23T06:34:28.742Z,100847.47
2017-05-23T06:37:00.297Z,100850.77
2017-05-23T06:39:27.533Z,100848.02
2017-05-23T06:41:54.424Z,100847.45
2017-05-23T06:44:26.033Z,100854.79
2017-05-23T06:46:52.428Z,100858.52
2017-05-23T06:49:18.911Z,100861.27
2017-05-23T06:51:45.369Z,100859.83
2017-05-23T06:54:12.094Z,100862.12
2017-05-23T06:56:38.484Z,100865.53
2017-05-23T06:59:11.174Z,100865.67
2017-05-23T07:01:37.593Z,100861.36
2017-05-23T07:04:11.435Z,100860.46
2017-05-23T07:06:43.525Z,100868.56
2017-05-23T07:09:10.946Z,100875.97
2017-05-23T07:11:37.249Z,100873.20
2017-05-23T07:14:03.891Z,100872.28
2017-05-23T07:16:35.503Z,100887.20
2017-05-23T07:19:02.327Z,100877.03
2017-05-23T07:21:30.170Z,100876.11
2017-05-23T07:24:00.492Z,100873.19
2017-05-23T07:26:27.818Z,100867.48
2017-05-23T07:28:54.147Z,100872.26
2017-05-23T07:31:20.900Z,100871.05
2017-05-23T07:33:47.219Z,100872.81
2017-05-23T07:36:19.127Z,100877.27
2017-05-23T07:38:52.259Z,100878.98
2017-05-23T07:41:19.721Z,100875.72
2017-05-23T07:43:47.085Z,100872.30
2017-05-23T07:46:13.889Z,100877.13
2017-05-23T07:48:45.723Z,100874.18
2017-05-23T07:51:17.355Z,100873.20
2017-05-23T07:53:48.273Z,100877.32
2017-05-23T07:56:19.815Z,100870.87
2017-05-23T07:58:52.346Z,100870.69
2017-05-23T08:01:24.844Z,100869.95
2017-05-23T08:03:51.249Z,100876.18
2017-05-23T08:06:17.768Z,100876.06
2017-05-23T08:08:49.194Z,100875.52
2017-05-23T08:11:15.545Z,100885.20
2017-05-23T08:13:47.898Z,100876.23
2017-05-23T08:16:14.330Z,100877.09
2017-05-23T08:18:40.998Z,100885.06
2017-05-23T08:21:07.443Z,100887.67
2017-05-23T08:23:38.917Z,100889.33
2017-05-23T08:26:05.429Z,100892.61
2017-05-23T08:28:39.784Z,100885.19
2017-05-23T08:31:06.252Z,100885.69
2017-05-23T08:33:37.941Z,100882.02
2017-05-23T08:36:04.528Z,100874.89
2017-05-23T08:38:31.961Z,100879.01
2017-05-23T08:40:58.442Z,100889.00
2017-05-23T08:43:28.290Z,100879.05
2017-05-23T08:46:00.007Z,100880.39
2017-05-23T08:48:30.460Z,100870.82
2017-05-23T08:51:02.576Z,100878.97
2017-05-23T08:53:34.380Z,100884.20
2017-05-23T08:56:01.134Z,100882.13
2017-05-23T08:58:27.808Z,100880.38
2017-05-23T09:00:54.407Z,100878.09
2017-05-23T09:03:20.745Z,100884.77
2017-05-23T09:05:47.391Z,100873.67
2017-05-23T09:08:16.987Z,100880.77
2017-05-23T09:10:46.454Z,100874.95
2017-05-23T09:13:16.597Z,100875.49
2017-05-23T09:15:50.171Z,100878.98
2017-05-23T09:18:19.581Z,100878.86
2017-05-23T09:20:52.021Z,100882.36
2017-05-23T09:23:18.382Z,100892.58
2017-05-23T09:26:02.584Z,100887.86
2017-05-23T09:28:29.222Z,100892.17
2017-05-23T09:30:55.570Z,100886.02
2017-05-23T09:33:21.927Z,100903.17
2017-05-23T09:35:48.283Z,100897.75
2017-05-23T09:38:14.615Z,100904.42
2017-05-23T09:40:40.955Z,100896.55
2017-05-23T09:43:07.265Z,100896.25
2017-05-23T09:45:33.591Z,100897.73
2017-05-23T09:47:59.909Z,100900.63
2017-05-23T09:50:26.274Z,100906.45
2017-05-23T09:52:52.602Z,100901.16
2017-05-23T09:55:18.963Z,100909.00
2017-05-23T09:57:45.299Z,100910.22
2017-05-23T10:00:11.670Z,100904.96
2017-05-23T10:02:38.001Z,100904.02
2017-05-23T10:05:04.379Z,100907.19
2017-05-23T10:07:30.710Z,100906.31
2017-05-23T10:09:57.009Z,100905.66
2017-05-23T10:12:23.303Z,100901.86
2017-05-23T10:14:49.654Z,100906.75
2017-05-23T10:17:15.969Z,100903.68
2017-05-23T10:19:42.274Z,100907.97
2017-05-23T10:22:08.603Z,100909.24
2017-05-23T10:24:34.937Z,100902.30
2017-05-23T10:27:01.249Z,100911.95
2017-05-23T10:29:27.585Z,100916.22
2017-05-23T10:31:53.925Z,100915.20
2017-05-23T10:34:20.267Z,100921.75
2017-05-23T10:36:46.591Z,100904.84
2017-05-23T10:39:12.898Z,100910.92
2017-05-23T10:41:39.224Z,100904.86
2017-05-23T10:44:05.543Z,100902.23
2017-05-23T10:46:31.851Z,100906.98
2017-05-23T10:48:58.219Z,100903.61
2017-05-23T10:51:24.552Z,100908.34
2017-05-23T10:53:50.846Z,100921.35
2017-05-23T10:56:17.181Z,100918.53
2017-05-23T10:58:43.522Z,100917.28
2017-05-23T11:01:09.842Z,100921.67
2017-05-23T11:03:36.234Z,100915.72
2017-05-23T11:06:02.562Z,100912.94
2017-05-23T11:08:28.893Z,100916.61
2017-05-23T11:10:55.229Z,100907.05
2017-05-23T11:13:21.548Z,100910.53
2017-05-23T11:15:47.883Z,100920.13
2017-05-23T11:18:14.206Z,100932.30
2017-05-23T11:20:40.524Z,100932.23
2017-05-23T11:23:06.900Z,100932.14
2017-05-23T11:25:33.202Z,100934.00
2017-05-23T11:27:59.555Z,100939.28
2017-05-23T11:30:25.895Z,100936.20
2017-05-23T11:32:52.241Z,100931.67
2017-05-23T11:35:18.589Z,100939.88
2017-05-23T11:37:44.925Z,100942.81
2017-05-23T11:40:11.253Z,100935.86
2017-05-23T11:42:37.593Z,100943.47
2017-05-23T11:45:03.938Z,100949.41
2017-05-23T11:47:30.246Z,100946.00
2017-05-23T11:49:56.562Z,100949.75
2017-05-23T11:52:22.886Z,100952.30
2017-05-23T11:54:49.243Z,100945.34
2017-05-23T11:57:15.584Z,100953.13
2017-05-23T11:59:41.900Z,100954.07
2017-05-23T12:02:08.223Z,100952.33
2017-05-23T12:04:34.556Z,100960.97
2017-05-23T12:07:00.900Z,100956.00
2017-05-23T12:09:27.233Z,100966.25
2017-05-23T12:11:53.571Z,100950.54
2017-05-23T12:14:19.900Z,100959.55
2017-05-23T12:16:46.218Z,100963.80
2017-05-23T12:19:12.534Z,100960.73
2017-05-23T12:21:38.874Z,100947.43
2017-05-23T12:24:05.190Z,100960.59
2017-05-23T12:26:31.513Z,100954.16
2017-05-23T12:28:57.829Z,100969.13
2017-05-23T12:31:24.148Z,100961.06
2017-05-23T12:33:50.480Z,100971.30
2017-05-23T12:36:16.838Z,100952.92
2017-05-23T12:38:43.159Z,100966.27
2017-05-23T12:41:09.508Z,100962.06
2017-05-23T12:43:35.841Z,100973.54
2017-05-23T12:46:02.867Z,100970.64
2017-05-23T12:48:29.230Z,100972.20
2017-05-23T12:50:55.523Z,100968.69
2017-05-23T12:53:21.929Z,100977.81
2017-05-23T12:55:48.339Z,100983.70
2017-05-23T12:58:14.650Z,100969.75
2017-05-23T13:00:40.983Z,100982.37
2017-05-23T13:03:07.296Z,100978.89
2017-05-23T13:05:33.681Z,100978.65
2017-05-23T13:08:00.003Z,100985.70
2017-05-23T13:10:26.335Z,100988.27
2017-05-23T13:12:52.663Z,100976.39
2017-05-23T13:15:19.001Z,100983.82
2017-05-23T13:17:45.375Z,100983.17
2017-05-23T13:20:11.750Z,100994.50
2017-05-23T13:22:38.071Z,100990.61
2017-05-23T13:25:04.370Z,100995.92
2017-05-23T13:27:30.711Z,100997.31
2017-05-23T13:29:57.061Z,101001.42
2017-05-23T13:32:23.371Z,100993.59
2017-05-23T13:34:49.692Z,100997.24
2017-05-23T13:37:16.018Z,100998.41
2017-05-23T13:39:42.347Z,101007.06
2017-05-23T13:42:08.701Z,101010.69
2017-05-23T13:44:35.024Z,101011.48
2017-05-23T13:47:01.338Z,101007.34
2017-05-23T13:49:27.660Z,101012.64
2017-05-23T13:51:53.981Z,101011.54
2017-05-23T13:54:20.329Z,100993.97
2017-05-23T13:56:46.661Z,100992.17
2017-05-23T13:59:12.987Z,100989.50
2017-05-23T14:01:39.299Z,100994.90
2017-05-23T14:04:05.631Z,100998.72
2017-05-23T14:06:31.983Z,100991.70
2017-05-23T14:08:58.307Z,101000.02
2017-05-23T14:11:24.649Z,101000.41
2017-05-23T14:13:51.020Z,101008.94
2017-05-23T14:16:17.334Z,100997.80
2017-05-23T14:18:43.697Z,101004.62
2017-05-23T14:21:10.031Z,101017.62
2017-05-23T14:23:36.350Z,101022.57
2017-05-23T14:26:02.655Z,101015.23
2017-05-23T14:28:29.006Z,101023.22
2017-05-23T14:30:55.327Z,101027.08
2017-05-23T14:33:21.658Z,101030.89
2017-05-23T14:35:48.031Z,101030.68
2017-05-23T14:38:14.375Z,101029.64
2017-05-23T14:40:40.694Z,101038.52
2017-05-23T14:43:07.007Z,101033.59
2017-05-23T14:45:33.350Z,101038.37
2017-05-23T14:47:59.801Z,101045.04
2017-05-23T14:50:26.126Z,101038.37
2017-05-23T14:52:52.434Z,101051.26
2017-05-23T14:55:18.753Z,101056.98
2017-05-23T14:57:45.098Z,101063.11
2017-05-23T15:00:11.417Z,101069.25
2017-05-23T15:02:37.739Z,101065.29
2017-05-23T15:05:04.089Z,101066.89
2017-05-23T15:07:30.398Z,101078.66
2017-05-23T15:09:56.742Z,101074.38
2017-05-23T15:12:23.098Z,101084.34
2017-05-23T15:14:49.423Z,101073.83
2017-05-23T15:17:15.777Z,101081.75
2017-05-23T15:19:42.147Z,101083.34
2017-05-23T15:22:08.478Z,101086.86
2017-05-23T15:24:34.802Z,101095.62
2017-05-23T15:27:01.138Z,101095.38
2017-05-23T15:29:27.472Z,101094.17
2017-05-23T15:31:53.798Z,101088.89
2017-05-23T15:34:20.130Z,101087.09
2017-05-23T15:36:46.458Z,101100.91
2017-05-23T15:39:12.796Z,101108.06
2017-05-23T15:41:39.140Z,101106.52
2017-05-23T15:44:05.494Z,101117.94
2017-05-23T15:46:31.826Z,101111.91
2017-05-23T15:48:58.201Z,101114.67
2017-05-23T15:51:24.512Z,101114.05
2017-05-23T15:53:50.841Z,101117.02
2017-05-23T15:56:17.166Z,101120.45
2017-05-23T15:58:43.471Z,101118.24
2017-05-23T16:01:09.800Z,101122.84
2017-05-23T16:03:36.133Z,101132.34
2017-05-23T16:06:02.489Z,101119.78
2017-05-23T16:08:28.832Z,101131.50
2017-05-23T16:10:55.157Z,101126.50
2017-05-23T16:13:21.519Z,101136.73
2017-05-23T16:15:47.921Z,101127.52
2017-05-23T16:18:14.267Z,101130.12
2017-05-23T16:20:41.552Z,101121.22
2017-05-23T16:23:08.423Z,101129.98
2017-05-23T16:25:34.801Z,101133.93
2017-05-23T16:28:01.119Z,101126.02
2017-05-23T16:30:27.517Z,101141.04
2017-05-23T16:32:53.861Z,101131.63
2017-05-23T16:35:20.174Z,101126.52
2017-05-23T16:37:46.526Z,101140.80
2017-05-23T16:40:12.834Z,101139.10
2017-05-23T16:42:39.209Z,101140.09
2017-05-23T16:45:05.533Z,101149.64
2017-05-23T16:47:31.859Z,101152.59
2017-05-23T16:49:58.191Z,101154.07
2017-05-23T16:52:24.529Z,101163.46
2017-05-23T16:54:50.863Z,101164.62
2017-05-23T16:57:17.193Z,101171.64
2017-05-23T16:59:43.530Z,101175.48
2017-05-23T17:02:09.838Z,101174.20
2017-05-23T17:04:36.177Z,101174.61
2017-05-23T17:07:02.541Z,101183.42
2017-05-23T17:09:28.913Z,101177.55
2017-05-23T17:11:55.254Z,101182.72
2017-05-23T17:14:21.598Z,101184.92
2017-05-23T17:16:47.938Z,101190.61
2017-05-23T17:19:14.267Z,101193.13
2017-05-23T17:21:40.588Z,101203.66
2017-05-23T17:24:06.926Z,101207.09
2017-05-23T17:26:33.273Z,101210.36
2017-05-23T17:28:59.640Z,101203.68
2017-05-23T17:31:25.993Z,101223.39
2017-05-23T17:33:52.321Z,101215.05
2017-05-23T17:36:18.660Z,101225.66
2017-05-23T17:38:45.026Z,101220.45
2017-05-23T17:41:11.347Z,101230.52
2017-05-23T17:43:37.691Z,101231.62
2017-05-23T17:46:04.010Z,101244.52
2017-05-23T17:48:30.328Z,101244.81
2017-05-23T17:50:56.657Z,101256.66
2017-05-23T17:53:22.988Z,101260.98
2017-05-23T17:55:49.306Z,101266.50
2017-05-23T17:58:15.637Z,101269.11
2017-05-23T18:00:41.947Z,101276.06
2017-05-23T18:03:08.260Z,101276.77
2017-05-23T18:05:34.615Z,101287.73
2017-05-23T18:08:00.994Z,101294.96
2017-05-23T18:10:27.342Z,101286.51
2017-05-23T18:12:53.642Z,101289.28
2017-05-23T18:15:19.989Z,101300.28
2017-05-23T18:17:46.321Z,101291.70
2017-05-23T18:20:12.634Z,101303.58
2017-05-23T18:22:39.012Z,101310.11
2017-05-23T18:25:05.334Z,101316.45
2017-05-23T18:27:31.683Z,101317.52
2017-05-23T18:29:58.029Z,101321.58
2017-05-23T18:32:24.362Z,101327.94
2017-05-23T18:34:50.783Z,101335.82
2017-05-23T18:37:17.151Z,101337.92
2017-05-23T18:39:44.156Z,101345.98
2017-05-23T18:42:10.525Z,101348.05
2017-05-23T18:44:36.902Z,101354.83
2017-05-23T18:47:03.251Z,101358.16
2017-05-23T18:49:29.606Z,101365.33
2017-05-23T18:51:55.951Z,101364.19
2017-05-23T18:54:22.286Z,101371.61
2017-05-23T18:56:48.637Z,101366.67
2017-05-23T18:59:14.982Z,101375.02
2017-05-23T19:01:41.307Z,101386.35
2017-05-23T19:04:07.658Z,101389.10
2017-05-23T19:06:33.994Z,101389.70
2017-05-23T19:09:00.622Z,101394.86
2017-05-23T19:11:27.058Z,101406.10
2017-05-23T19:13:53.571Z,101400.88
2017-05-23T19:16:21.129Z,101402.20
2017-05-23T19:18:47.545Z,101413.46
2017-05-23T19:21:14.060Z,101414.97
2017-05-23T19:23:40.476Z,101409.89
2017-05-23T19:26:06.877Z,101423.31
2017-05-23T19:28:33.211Z,101427.55
2017-05-23T19:30:59.586Z,101426.42
2017-05-23T19:33:25.941Z,101431.39
2017-05-23T19:35:52.286Z,101445.20
2017-05-23T19:38:18.637Z,101452.20
2017-05-23T19:40:44.984Z,101446.72
2017-05-23T19:43:11.396Z,101458.01
2017-05-23T19:45:37.736Z,101464.80
2017-05-23T19:48:04.195Z,101477.95
2017-05-23T19:50:30.952Z,101477.56
2017-05-23T19:52:57.476Z,101471.77
2017-05-23T19:55:25.266Z,101480.92
2017-05-23T19:57:53.140Z,101481.07
